createdAt,value
2019-02-12T00:02:15.838Z,6.50
2019-02-12T00:04:46.497Z,6.70
2019-02-12T00:07:17.752Z,6.60
2019-02-12T00:09:48.103Z,6.50
2019-02-12T00:12:18.525Z,6.70
2019-02-12T00:14:49.237Z,6.80
2019-02-12T00:17:19.613Z,6.70
2019-02-12T00:19:49.959Z,6.60
2019-02-12T00:22:20.378Z,6.60
2019-02-12T00:24:50.711Z,6.50
2019-02-12T00:27:21.424Z,6.80
2019-02-12T00:29:51.826Z,6.90
2019-02-12T00:32:22.198Z,6.90
2019-02-12T00:34:53.456Z,6.70
2019-02-12T00:37:24.616Z,6.70
2019-02-12T00:39:57.179Z,6.60
2019-02-12T00:42:33.753Z,6.50
2019-02-12T00:45:04.265Z,6.50
2019-02-12T00:47:34.907Z,6.50
2019-02-12T00:50:05.564Z,6.40
2019-02-12T00:52:36.226Z,6.60
2019-02-12T00:55:07.555Z,6.60
2019-02-12T00:57:38.029Z,6.60
2019-02-12T01:00:11.194Z,6.60
2019-02-12T01:02:41.835Z,6.50
2019-02-12T01:05:12.344Z,6.40
2019-02-12T01:07:42.664Z,6.30
2019-02-12T01:10:13.306Z,6.40
2019-02-12T01:12:43.681Z,6.20
2019-02-12T01:15:19.556Z,6.20
2019-02-12T01:17:50.188Z,6.30
2019-02-12T01:20:21.106Z,6.40
2019-02-12T01:22:51.802Z,6.40
2019-02-12T01:25:22.442Z,6.40
2019-02-12T01:27:53.930Z,6.20
2019-02-12T01:30:24.319Z,6.30
2019-02-12T01:32:55.008Z,6.10
2019-02-12T01:35:25.651Z,6.30
2019-02-12T01:37:56.002Z,6.20
2019-02-12T01:40:26.508Z,6.30
2019-02-12T01:42:56.879Z,5.90
2019-02-12T01:45:27.173Z,6.20
2019-02-12T01:47:57.587Z,5.90
2019-02-12T01:50:27.915Z,5.90
2019-02-12T01:52:58.246Z,6.00
2019-02-12T01:55:28.862Z,6.20
2019-02-12T01:57:59.683Z,6.00
2019-02-12T02:00:31.346Z,5.90
2019-02-12T02:03:01.929Z,6.00
2019-02-12T02:05:32.290Z,6.00
2019-02-12T02:08:02.677Z,5.60
2019-02-12T02:10:33.061Z,6.00
2019-02-12T02:13:03.412Z,5.80
2019-02-12T02:15:33.861Z,5.80
2019-02-12T02:18:04.589Z,5.70
2019-02-12T02:20:35.209Z,5.80
2019-02-12T02:23:06.404Z,5.80
2019-02-12T02:25:37.028Z,5.70
2019-02-12T02:28:07.893Z,6.00
2019-02-12T02:30:38.950Z,6.00
2019-02-12T02:33:09.284Z,5.70
2019-02-12T02:35:39.910Z,5.90
2019-02-12T02:38:10.247Z,5.90
2019-02-12T02:40:40.608Z,5.90
2019-02-12T02:43:10.970Z,6.00
2019-02-12T02:45:41.718Z,6.00
2019-02-12T02:48:12.358Z,6.00
2019-02-12T02:50:43.045Z,6.00
2019-02-12T02:53:13.396Z,5.90
2019-02-12T02:55:43.763Z,5.80
2019-02-12T02:58:14.097Z,5.70
2019-02-12T03:00:50.352Z,5.80
2019-02-12T03:03:20.672Z,5.90
2019-02-12T03:05:51.035Z,5.80
2019-02-12T03:08:21.386Z,5.90
2019-02-12T03:10:52.343Z,5.80
2019-02-12T03:13:23.094Z,5.60
2019-02-12T03:15:55.729Z,5.60
2019-02-12T03:18:26.363Z,5.80
2019-02-12T03:20:57.248Z,5.90
2019-02-12T03:23:27.937Z,5.70
2019-02-12T03:25:58.999Z,5.70
2019-02-12T03:28:29.619Z,5.60
2019-02-12T03:31:10.590Z,5.60
2019-02-12T03:33:41.518Z,5.70
2019-02-12T03:36:11.900Z,5.70
2019-02-12T03:38:42.594Z,5.90
2019-02-12T03:41:12.896Z,5.90
2019-02-12T03:43:43.532Z,5.90
2019-02-12T03:46:13.880Z,5.90
2019-02-12T03:48:50.046Z,6.10
2019-02-12T03:51:20.440Z,6.10
2019-02-12T03:53:50.802Z,6.00
2019-02-12T03:56:21.179Z,5.80
2019-02-12T03:58:51.745Z,6.00
2019-02-12T04:01:22.604Z,5.90
2019-02-12T04:03:54.412Z,6.00
2019-02-12T04:06:25.211Z,6.10
2019-02-12T04:08:55.582Z,6.00
2019-02-12T04:11:25.936Z,6.10
2019-02-12T04:13:56.292Z,6.10
2019-02-12T04:16:26.663Z,6.00
2019-02-12T04:18:57.015Z,6.10
2019-02-12T04:21:27.364Z,6.20
2019-02-12T04:23:57.920Z,6.20
2019-02-12T04:26:28.246Z,6.00
2019-02-12T04:28:58.589Z,6.00
2019-02-12T04:31:29.457Z,6.10
2019-02-12T04:33:59.855Z,6.00
2019-02-12T04:36:30.461Z,6.10
2019-02-12T04:39:00.848Z,6.10
2019-02-12T04:41:31.204Z,6.00
2019-02-12T04:44:01.565Z,5.70
2019-02-12T04:46:31.930Z,5.40
2019-02-12T04:49:02.292Z,5.60
2019-02-12T04:51:32.595Z,5.60
2019-02-12T04:54:03.316Z,5.80
2019-02-12T04:56:33.659Z,5.70
2019-02-12T04:59:04.305Z,5.60
2019-02-12T05:01:51.812Z,5.70
2019-02-12T05:04:22.422Z,5.60
2019-02-12T05:06:52.789Z,5.70
2019-02-12T05:09:23.981Z,5.50
2019-02-12T05:12:01.272Z,5.70
2019-02-12T05:14:31.666Z,5.70
2019-02-12T05:17:02.034Z,5.70
2019-02-12T05:19:32.380Z,5.50
2019-02-12T05:22:02.717Z,5.60
2019-02-12T05:24:33.041Z,5.50
2019-02-12T05:27:03.894Z,5.50
2019-02-12T05:29:34.546Z,5.60
2019-02-12T05:32:04.936Z,5.50
2019-02-12T05:34:48.277Z,5.50
2019-02-12T05:37:18.631Z,5.40
2019-02-12T05:39:49.251Z,5.40
2019-02-12T05:42:19.585Z,5.40
2019-02-12T05:44:50.204Z,5.30
2019-02-12T05:47:20.534Z,5.40
2019-02-12T05:49:50.851Z,5.50
2019-02-12T05:52:22.609Z,5.60
2019-02-12T05:54:53.335Z,5.50
2019-02-12T05:57:23.766Z,5.70
2019-02-12T05:59:54.048Z,5.80
2019-02-12T06:02:24.388Z,5.80
2019-02-12T06:04:54.996Z,5.80
2019-02-12T06:07:25.387Z,5.60
2019-02-12T06:09:55.956Z,5.70
2019-02-12T06:12:28.344Z,5.70
2019-02-12T06:14:58.771Z,5.80
2019-02-12T06:17:29.893Z,5.80
2019-02-12T06:20:00.386Z,5.80
2019-02-12T06:22:30.731Z,5.90
2019-02-12T06:25:01.272Z,5.70
2019-02-12T06:27:31.635Z,5.90
2019-02-12T06:30:02.386Z,5.90
2019-02-12T06:32:32.789Z,5.90
2019-02-12T06:35:03.464Z,5.80
2019-02-12T06:37:34.119Z,5.90
2019-02-12T06:40:05.234Z,5.90
2019-02-12T06:42:35.588Z,5.70
2019-02-12T06:45:07.643Z,5.90
2019-02-12T06:47:38.291Z,5.90
2019-02-12T06:50:10.061Z,5.80
2019-02-12T06:52:40.790Z,5.70
2019-02-12T06:55:11.597Z,5.80
2019-02-12T06:57:42.249Z,5.80
2019-02-12T07:00:12.630Z,5.80
2019-02-12T07:03:11.763Z,5.70
2019-02-12T07:06:17.442Z,5.90
2019-02-12T07:09:21.809Z,5.70
2019-02-12T07:12:45.928Z,5.70
2019-02-12T07:15:44.925Z,5.70
2019-02-12T07:18:57.709Z,5.70
2019-02-12T07:22:26.347Z,5.40
2019-02-12T07:25:37.073Z,5.70
2019-02-12T07:28:35.860Z,5.60
2019-02-12T07:32:12.010Z,5.70
2019-02-12T07:35:36.771Z,5.70
2019-02-12T07:38:41.985Z,5.90
2019-02-12T07:42:14.825Z,5.90
2019-02-12T07:45:32.220Z,5.90
2019-02-12T07:49:19.996Z,5.80
2019-02-12T07:53:31.021Z,6.00
2019-02-12T07:57:03.491Z,6.20
2019-02-12T08:00:06.474Z,6.20
2019-02-12T08:03:12.101Z,6.10
2019-02-12T08:06:26.405Z,6.40
2019-02-12T08:10:01.763Z,6.60
2019-02-12T08:13:26.139Z,6.80
2019-02-12T08:16:47.270Z,6.80
2019-02-12T08:19:53.890Z,6.80
2019-02-12T08:23:13.972Z,6.90
2019-02-12T08:26:20.293Z,6.80
2019-02-12T08:30:06.272Z,6.70
2019-02-12T08:32:59.262Z,6.80
2019-02-12T08:35:57.584Z,6.90
2019-02-12T08:39:11.158Z,7.00
2019-02-12T08:42:41.580Z,6.90
2019-02-12T08:45:58.247Z,7.00
2019-02-12T08:49:15.678Z,6.90
2019-02-12T08:52:45.258Z,7.30
2019-02-12T08:55:43.920Z,7.10
2019-02-12T08:58:41.574Z,7.10
2019-02-12T09:02:09.033Z,7.20
2019-02-12T09:05:22.795Z,7.00
2019-02-12T09:08:40.102Z,7.20
2019-02-12T09:11:38.600Z,7.10
2019-02-12T09:14:27.582Z,7.00
2019-02-12T09:17:53.981Z,7.30
2019-02-12T09:21:33.119Z,7.40
2019-02-12T09:24:46.555Z,7.70
2019-02-12T09:28:09.786Z,7.50
2019-02-12T09:31:47.885Z,7.50
2019-02-12T09:34:58.886Z,7.90
2019-02-12T09:38:12.734Z,7.50
2019-02-12T09:41:19.794Z,7.90
2019-02-12T09:44:40.541Z,8.20
2019-02-12T09:48:07.676Z,8.00
2019-02-12T09:51:24.803Z,8.40
2019-02-12T09:55:03.973Z,8.50
2019-02-12T09:58:13.078Z,8.30
2019-02-12T10:01:11.358Z,8.40
2019-02-12T10:04:36.694Z,8.30
2019-02-12T10:07:42.776Z,8.40
2019-02-12T10:11:01.495Z,8.20
2019-02-12T10:14:07.337Z,8.80
2019-02-12T10:17:06.260Z,8.50
2019-02-12T10:19:52.825Z,8.20
2019-02-12T10:23:37.795Z,8.50
2019-02-12T10:26:12.527Z,8.40
2019-02-12T10:29:32.812Z,8.70
2019-02-12T10:32:08.426Z,8.90
2019-02-12T10:34:33.571Z,8.50
2019-02-12T10:37:03.893Z,9.00
2019-02-12T10:39:34.484Z,8.90
2019-02-12T10:42:04.878Z,9.20
2019-02-12T10:44:35.215Z,8.70
2019-02-12T10:47:05.656Z,8.90
2019-02-12T10:49:36.052Z,8.60
2019-02-12T10:52:06.405Z,8.70
2019-02-12T10:54:36.753Z,8.70
2019-02-12T10:57:07.639Z,8.80
2019-02-12T10:59:38.047Z,8.70
2019-02-12T11:02:08.388Z,8.50
2019-02-12T11:04:38.699Z,8.70
2019-02-12T11:07:09.280Z,8.80
2019-02-12T11:09:40.393Z,8.30
2019-02-12T11:12:10.743Z,8.40
2019-02-12T11:14:41.353Z,8.60
2019-02-12T11:17:11.934Z,8.20
2019-02-12T11:19:43.007Z,8.30
2019-02-12T11:22:13.361Z,8.30
2019-02-12T11:24:43.683Z,8.30
2019-02-12T11:27:13.978Z,8.50
2019-02-12T11:29:44.312Z,8.70
2019-02-12T11:32:14.665Z,8.60
2019-02-12T11:34:45.275Z,9.00
2019-02-12T11:37:15.611Z,9.20
2019-02-12T11:39:45.959Z,9.30
2019-02-12T11:42:16.549Z,9.30
2019-02-12T11:44:46.880Z,9.30
2019-02-12T11:47:17.179Z,9.60
2019-02-12T11:49:48.061Z,9.70
2019-02-12T11:52:18.657Z,9.40
2019-02-12T11:54:49.262Z,9.60
2019-02-12T11:57:20.258Z,9.90
2019-02-12T11:59:52.327Z,10.00
2019-02-12T12:02:25.689Z,10.00
2019-02-12T12:04:56.022Z,10.20
2019-02-12T12:07:26.282Z,10.10
2019-02-12T12:09:56.621Z,10.20
2019-02-12T12:12:26.949Z,10.20
2019-02-12T12:14:57.272Z,10.30
2019-02-12T12:17:28.208Z,10.60
2019-02-12T12:19:58.537Z,10.40
2019-02-12T12:22:29.133Z,10.20
2019-02-12T12:25:00.142Z,10.30
2019-02-12T12:27:30.472Z,10.40
2019-02-12T12:30:01.489Z,10.30
2019-02-12T12:32:32.122Z,10.80
2019-02-12T12:35:02.525Z,10.80
2019-02-12T12:37:32.845Z,10.90
2019-02-12T12:40:03.519Z,10.50
2019-02-12T12:42:33.897Z,10.70
2019-02-12T12:45:04.678Z,10.60
2019-02-12T12:47:35.055Z,10.80
2019-02-12T12:50:06.517Z,11.00
2019-02-12T12:52:36.845Z,10.80
2019-02-12T12:55:07.438Z,10.90
2019-02-12T12:57:42.059Z,10.90
2019-02-12T13:00:12.886Z,11.00
2019-02-12T13:02:43.504Z,10.90
2019-02-12T13:05:13.837Z,10.90
2019-02-12T13:07:44.123Z,10.70
2019-02-12T13:10:22.551Z,10.50
2019-02-12T13:12:53.187Z,10.50
2019-02-12T13:15:23.817Z,10.80
2019-02-12T13:17:54.134Z,10.90
2019-02-12T13:20:24.802Z,10.90
2019-02-12T13:22:55.445Z,11.00
2019-02-12T13:25:25.793Z,10.90
2019-02-12T13:27:56.476Z,10.80
2019-02-12T13:30:27.115Z,10.70
2019-02-12T13:32:57.520Z,10.60
2019-02-12T13:35:28.108Z,10.60
2019-02-12T13:37:58.741Z,10.50
2019-02-12T13:40:29.090Z,10.60
2019-02-12T13:43:00.071Z,10.50
2019-02-12T13:45:30.433Z,10.60
2019-02-12T13:48:00.823Z,10.60
2019-02-12T13:50:31.401Z,10.70
2019-02-12T13:53:01.716Z,10.80
2019-02-12T13:55:34.358Z,10.90
2019-02-12T13:58:04.725Z,10.80
2019-02-12T14:00:35.029Z,10.80
2019-02-12T14:03:05.635Z,10.80
2019-02-12T14:05:36.470Z,10.70
2019-02-12T14:08:06.859Z,10.50
2019-02-12T14:10:37.814Z,10.40
2019-02-12T14:13:08.986Z,10.50
2019-02-12T14:15:39.617Z,10.30
2019-02-12T14:18:09.940Z,10.40
2019-02-12T14:20:40.610Z,10.40
2019-02-12T14:23:10.954Z,10.40
2019-02-12T14:25:41.558Z,10.30
2019-02-12T14:28:12.004Z,10.40
2019-02-12T14:30:42.615Z,10.50
2019-02-12T14:33:12.970Z,10.50
2019-02-12T14:35:43.386Z,10.50
2019-02-12T14:38:13.758Z,10.50
2019-02-12T14:40:44.087Z,10.30
2019-02-12T14:43:14.729Z,10.20
2019-02-12T14:45:45.071Z,10.30
2019-02-12T14:48:15.473Z,10.30
2019-02-12T14:50:49.355Z,10.30
2019-02-12T14:53:20.468Z,10.10
2019-02-12T14:55:50.847Z,10.20
2019-02-12T14:58:21.157Z,10.40
2019-02-12T15:00:51.511Z,10.40
2019-02-12T15:03:22.429Z,10.50
2019-02-12T15:05:53.029Z,10.40
2019-02-12T15:08:23.639Z,10.50
2019-02-12T15:10:54.803Z,10.50
2019-02-12T15:13:25.501Z,10.40
2019-02-12T15:15:56.361Z,10.50
2019-02-12T15:18:26.753Z,10.50
2019-02-12T15:20:57.061Z,10.60
2019-02-12T15:23:29.476Z,10.40
2019-02-12T15:25:59.816Z,10.50
2019-02-12T15:28:30.486Z,10.60
2019-02-12T15:31:00.828Z,10.60
2019-02-12T15:33:31.710Z,10.40
2019-02-12T15:36:02.202Z,10.30
2019-02-12T15:38:32.503Z,10.30
2019-02-12T15:41:03.102Z,10.30
2019-02-12T15:43:34.044Z,10.20
2019-02-12T15:46:04.407Z,10.10
2019-02-12T15:48:35.296Z,10.00
2019-02-12T15:51:05.656Z,10.00
2019-02-12T15:53:36.507Z,9.70
2019-02-12T15:56:07.171Z,9.70
2019-02-12T15:58:37.543Z,9.80
2019-02-12T16:01:07.856Z,9.70
2019-02-12T16:03:38.317Z,9.80
2019-02-12T16:06:09.779Z,9.70
2019-02-12T16:08:40.593Z,9.70
2019-02-12T16:11:11.464Z,9.70
2019-02-12T16:13:42.091Z,9.70
2019-02-12T16:16:12.683Z,9.60
2019-02-12T16:18:43.468Z,9.60
2019-02-12T16:21:15.349Z,9.60
2019-02-12T16:23:46.536Z,9.60
2019-02-12T16:26:17.127Z,9.50
2019-02-12T16:28:59.644Z,9.40
2019-02-12T16:31:30.238Z,9.30
2019-02-12T16:34:02.532Z,9.20
2019-02-12T16:36:33.101Z,9.30
2019-02-12T16:39:04.770Z,9.20
2019-02-12T16:41:35.391Z,9.20
2019-02-12T16:44:06.308Z,9.10
2019-02-12T16:46:36.628Z,9.10
2019-02-12T16:49:07.340Z,9.10
2019-02-12T16:51:37.739Z,9.00
2019-02-12T16:54:08.427Z,8.90
2019-02-12T16:56:38.770Z,8.90
2019-02-12T16:59:09.541Z,8.90
2019-02-12T17:01:40.540Z,8.90
2019-02-12T17:04:11.754Z,8.80
2019-02-12T17:06:42.124Z,8.80
2019-02-12T17:09:12.677Z,8.80
2019-02-12T17:11:43.438Z,8.80
2019-02-12T17:14:13.812Z,8.80
2019-02-12T17:16:50.010Z,8.70
2019-02-12T17:19:20.699Z,8.50
2019-02-12T17:21:51.346Z,8.60
2019-02-12T17:24:22.020Z,8.50
2019-02-12T17:26:52.625Z,8.50
2019-02-12T17:29:23.172Z,8.40
2019-02-12T17:31:53.533Z,8.40
2019-02-12T17:34:23.888Z,8.40
2019-02-12T17:36:54.310Z,8.40
2019-02-12T17:39:25.640Z,8.30
2019-02-12T17:41:56.070Z,8.30
2019-02-12T17:44:26.393Z,8.30
2019-02-12T17:46:56.699Z,8.20
2019-02-12T17:49:27.395Z,8.20
2019-02-12T17:51:58.220Z,8.20
2019-02-12T17:54:28.770Z,8.20
2019-02-12T17:56:59.110Z,8.20
2019-02-12T17:59:29.572Z,8.20
2019-02-12T18:01:59.919Z,8.20
2019-02-12T18:04:30.259Z,8.20
2019-02-12T18:07:00.634Z,8.20
2019-02-12T18:09:30.959Z,8.10
2019-02-12T18:12:01.306Z,8.10
2019-02-12T18:14:31.915Z,8.10
2019-02-12T18:17:02.250Z,8.20
2019-02-12T18:19:33.091Z,8.10
2019-02-12T18:22:03.677Z,8.10
2019-02-12T18:24:34.031Z,8.00
2019-02-12T18:27:04.458Z,8.10
2019-02-12T18:29:36.851Z,8.10
2019-02-12T18:32:07.804Z,8.10
2019-02-12T18:34:38.507Z,8.10
2019-02-12T18:37:09.068Z,8.10
2019-02-12T18:39:39.477Z,8.10
2019-02-12T18:42:09.992Z,8.00
2019-02-12T18:44:40.311Z,8.00
2019-02-12T18:47:10.654Z,8.00
2019-02-12T18:49:41.513Z,8.10
2019-02-12T18:52:12.398Z,8.10
2019-02-12T18:54:42.807Z,8.10
2019-02-12T18:57:19.320Z,8.10
2019-02-12T18:59:49.870Z,8.10
2019-02-12T19:02:20.309Z,8.20
2019-02-12T19:04:55.420Z,8.10
2019-02-12T19:07:27.848Z,8.20
2019-02-12T19:09:58.598Z,8.20
2019-02-12T19:12:29.385Z,8.20
2019-02-12T19:15:02.284Z,8.20
2019-02-12T19:17:32.964Z,8.20
2019-02-12T19:20:03.375Z,8.30
2019-02-12T19:22:36.573Z,8.20
2019-02-12T19:25:07.744Z,8.20
2019-02-12T19:27:38.142Z,8.30
2019-02-12T19:30:13.830Z,8.10
2019-02-12T19:32:45.085Z,8.20
2019-02-12T19:35:15.499Z,8.20
2019-02-12T19:37:45.950Z,8.20
2019-02-12T19:40:16.580Z,8.30
2019-02-12T19:42:47.057Z,8.30
2019-02-12T19:45:17.500Z,8.10
2019-02-12T19:47:48.951Z,8.20
2019-02-12T19:50:19.616Z,8.20
2019-02-12T19:52:49.951Z,8.20
2019-02-12T19:55:20.779Z,8.20
2019-02-12T19:57:51.510Z,8.20
2019-02-12T20:00:22.402Z,8.10
2019-02-12T20:02:52.729Z,8.20
2019-02-12T20:05:23.807Z,8.20
2019-02-12T20:07:54.441Z,8.10
2019-02-12T20:10:25.500Z,8.10
2019-02-12T20:12:55.864Z,8.10
2019-02-12T20:15:26.528Z,8.10
2019-02-12T20:17:56.862Z,8.00
2019-02-12T20:20:27.656Z,8.10
2019-02-12T20:22:58.017Z,8.00
2019-02-12T20:25:36.494Z,8.10
2019-02-12T20:28:07.082Z,8.20
2019-02-12T20:30:37.749Z,8.10
2019-02-12T20:33:08.115Z,8.10
2019-02-12T20:35:38.436Z,8.10
2019-02-12T20:38:09.133Z,8.00
2019-02-12T20:40:39.755Z,7.90
2019-02-12T20:43:10.162Z,7.90
2019-02-12T20:45:40.864Z,8.00
2019-02-12T20:48:11.306Z,8.10
2019-02-12T20:50:41.704Z,8.10
2019-02-12T20:53:12.144Z,8.00
2019-02-12T20:55:42.633Z,8.00
2019-02-12T20:58:13.462Z,8.00
2019-02-12T21:00:44.103Z,8.10
2019-02-12T21:03:14.587Z,7.90
2019-02-12T21:05:45.101Z,7.90
2019-02-12T21:08:16.049Z,7.80
2019-02-12T21:10:46.784Z,7.90
2019-02-12T21:13:17.543Z,7.90
2019-02-12T21:15:48.298Z,7.90
2019-02-12T21:18:18.643Z,7.90
2019-02-12T21:20:48.993Z,7.90
2019-02-12T21:23:19.615Z,7.80
2019-02-12T21:25:50.370Z,7.80
2019-02-12T21:28:21.410Z,7.90
2019-02-12T21:30:52.051Z,8.00
2019-02-12T21:33:23.187Z,8.00
2019-02-12T21:35:53.509Z,7.90
2019-02-12T21:38:23.864Z,7.90
2019-02-12T21:40:54.793Z,8.00
2019-02-12T21:43:25.628Z,8.00
2019-02-12T21:45:55.954Z,8.00
2019-02-12T21:48:26.321Z,7.90
2019-02-12T21:50:56.922Z,7.80
2019-02-12T21:53:27.685Z,7.90
2019-02-12T21:55:58.003Z,7.90
2019-02-12T21:58:28.630Z,7.90
2019-02-12T22:00:59.235Z,8.00
2019-02-12T22:03:30.636Z,7.90
2019-02-12T22:06:01.172Z,7.80
2019-02-12T22:08:32.240Z,8.00
2019-02-12T22:11:02.624Z,8.00
2019-02-12T22:13:33.534Z,8.00
2019-02-12T22:16:03.883Z,8.00
2019-02-12T22:18:34.875Z,8.00
2019-02-12T22:21:05.474Z,8.00
2019-02-12T22:23:35.881Z,8.10
2019-02-12T22:26:06.492Z,8.10
2019-02-12T22:28:36.956Z,8.10
2019-02-12T22:31:07.679Z,8.10
2019-02-12T22:33:38.421Z,8.20
2019-02-12T22:36:08.751Z,8.20
2019-02-12T22:38:39.214Z,8.10
2019-02-12T22:41:10.060Z,8.10
2019-02-12T22:43:41.198Z,8.10
2019-02-12T22:46:11.786Z,8.10
2019-02-12T22:48:42.074Z,8.10
2019-02-12T22:51:19.147Z,8.00
2019-02-12T22:53:49.979Z,8.10
2019-02-12T22:56:20.654Z,8.00
2019-02-12T22:58:51.849Z,8.10
2019-02-12T23:01:33.988Z,8.10
2019-02-12T23:04:07.196Z,8.10
2019-02-12T23:06:44.019Z,8.10
2019-02-12T23:09:16.724Z,8.10
2019-02-12T23:11:47.437Z,8.20
2019-02-12T23:14:17.844Z,8.20
2019-02-12T23:16:48.305Z,8.00
2019-02-12T23:19:21.076Z,8.10
2019-02-12T23:21:51.659Z,8.00
2019-02-12T23:24:22.291Z,8.10
2019-02-12T23:26:52.701Z,8.00
2019-02-12T23:29:23.078Z,8.00
2019-02-12T23:31:53.881Z,8.10
2019-02-12T23:34:24.247Z,8.10
2019-02-12T23:36:54.990Z,8.10
2019-02-12T23:39:25.460Z,8.20
2019-02-12T23:41:55.920Z,8.20
2019-02-12T23:44:26.298Z,8.20
2019-02-12T23:46:56.697Z,8.20
2019-02-12T23:49:27.357Z,8.10
2019-02-12T23:51:57.785Z,8.20
2019-02-12T23:54:28.179Z,8.10
2019-02-12T23:56:58.572Z,8.20
2019-02-12T23:59:29.535Z,8.10
